sensor_id;sensor_type;location;lat;lon;timestamp;temperature;humidity
2729;DHT22;1372;47.956;7.830;2022-08-01T00:01:17;20.40;99.90
2729;DHT22;1372;47.956;7.830;2022-08-01T00:03:45;20.40;99.90
2729;DHT22;1372;47.956;7.830;2022-08-01T00:06:14;20.40;99.90
2729;DHT22;1372;47.956;7.830;2022-08-01T00:08:43;20.40;99.90
2729;DHT22;1372;47.956;7.830;2022-08-01T00:11:13;20.30;99.90
2729;DHT22;1372;47.956;7.830;2022-08-01T00:14:01;20.10;99.90
2729;DHT22;1372;47.956;7.830;2022-08-01T00:16:30;20.10;99.90
2729;DHT22;1372;47.956;7.830;2022-08-01T00:18:59;20.20;99.90
2729;DHT22;1372;47.956;7.830;2022-08-01T00:21:28;20.20;99.90
2729;DHT22;1372;47.956;7.830;2022-08-01T00:23:56;20.20;99.90
2729;DHT22;1372;47.956;7.830;2022-08-01T00:26:30;20.10;99.90
2729;DHT22;1372;47.956;7.830;2022-08-01T00:28:58;20.10;99.90
2729;DHT22;1372;47.956;7.830;2022-08-01T00:31:27;20.10;99.90
2729;DHT22;1372;47.956;7.830;2022-08-01T00:34:15;20.10;99.90
2729;DHT22;1372;47.956;7.830;2022-08-01T00:36:44;20.00;99.90
2729;DHT22;1372;47.956;7.830;2022-08-01T00:39:13;19.90;99.90
2729;DHT22;1372;47.956;7.830;2022-08-01T00:42:08;19.90;99.90
2729;DHT22;1372;47.956;7.830;2022-08-01T00:44:57;19.90;99.90
2729;DHT22;1372;47.956;7.830;2022-08-01T00:47:26;19.90;99.90
2729;DHT22;1372;47.956;7.830;2022-08-01T00:49:54;19.70;99.90
2729;DHT22;1372;47.956;7.830;2022-08-01T00:52:23;19.70;99.90
2729;DHT22;1372;47.956;7.830;2022-08-01T00:54:54;19.80;99.90
2729;DHT22;1372;47.956;7.830;2022-08-01T00:57:43;19.80;99.90
2729;DHT22;1372;47.956;7.830;2022-08-01T01:00:28;19.70;99.90
2729;DHT22;1372;47.956;7.830;2022-08-01T01:02:59;19.70;99.90
2729;DHT22;1372;47.956;7.830;2022-08-01T01:05:34;19.70;99.90
2729;DHT22;1372;47.956;7.830;2022-08-01T01:08:16;19.60;99.90
2729;DHT22;1372;47.956;7.830;2022-08-01T01:10:52;19.60;99.90
2729;DHT22;1372;47.956;7.830;2022-08-01T01:13:33;19.50;99.90
2729;DHT22;1372;47.956;7.830;2022-08-01T01:16:15;19.50;99.90
2729;DHT22;1372;47.956;7.830;2022-08-01T01:18:48;19.40;99.90
2729;DHT22;1372;47.956;7.830;2022-08-01T01:21:43;19.40;99.90
2729;DHT22;1372;47.956;7.830;2022-08-01T01:24:24;19.40;99.90
2729;DHT22;1372;47.956;7.830;2022-08-01T01:27:16;19.40;99.90
2729;DHT22;1372;47.956;7.830;2022-08-01T01:29:52;19.30;99.90
2729;DHT22;1372;47.956;7.830;2022-08-01T01:32:48;19.30;99.90
2729;DHT22;1372;47.956;7.830;2022-08-01T01:35:22;19.20;99.90
2729;DHT22;1372;47.956;7.830;2022-08-01T01:37:57;19.10;99.90
2729;DHT22;1372;47.956;7.830;2022-08-01T01:40:30;19.20;99.90
2729;DHT22;1372;47.956;7.830;2022-08-01T01:43:00;19.10;99.90
2729;DHT22;1372;47.956;7.830;2022-08-01T01:45:30;19.10;99.90
2729;DHT22;1372;47.956;7.830;2022-08-01T01:48:01;19.00;99.90
2729;DHT22;1372;47.956;7.830;2022-08-01T01:50:32;19.00;99.90
2729;DHT22;1372;47.956;7.830;2022-08-01T01:53:02;19.00;99.90
2729;DHT22;1372;47.956;7.830;2022-08-01T01:55:32;18.90;99.90
2729;DHT22;1372;47.956;7.830;2022-08-01T01:58:16;18.90;99.90
2729;DHT22;1372;47.956;7.830;2022-08-01T02:00:50;18.90;99.90
2729;DHT22;1372;47.956;7.830;2022-08-01T02:03:21;18.90;99.90
2729;DHT22;1372;47.956;7.830;2022-08-01T02:05:51;18.80;99.90
2729;DHT22;1372;47.956;7.830;2022-08-01T02:08:42;18.80;99.90
2729;DHT22;1372;47.956;7.830;2022-08-01T02:11:31;18.80;99.90
2729;DHT22;1372;47.956;7.830;2022-08-01T02:14:02;18.80;99.90
2729;DHT22;1372;47.956;7.830;2022-08-01T02:16:35;18.70;99.90
2729;DHT22;1372;47.956;7.830;2022-08-01T02:19:04;18.70;99.90
2729;DHT22;1372;47.956;7.830;2022-08-01T02:21:38;18.70;99.90
2729;DHT22;1372;47.956;7.830;2022-08-01T02:24:12;18.70;99.90
2729;DHT22;1372;47.956;7.830;2022-08-01T02:26:47;18.70;99.90
2729;DHT22;1372;47.956;7.830;2022-08-01T02:29:22;18.70;99.90
2729;DHT22;1372;47.956;7.830;2022-08-01T02:31:55;18.70;99.90
2729;DHT22;1372;47.956;7.830;2022-08-01T02:34:25;18.70;99.90
2729;DHT22;1372;47.956;7.830;2022-08-01T02:37:00;18.70;99.90
2729;DHT22;1372;47.956;7.830;2022-08-01T02:39:51;18.60;99.90
2729;DHT22;1372;47.956;7.830;2022-08-01T02:42:22;18.60;99.90
2729;DHT22;1372;47.956;7.830;2022-08-01T02:44:52;18.50;99.90
2729;DHT22;1372;47.956;7.830;2022-08-01T02:47:25;18.60;99.90
2729;DHT22;1372;47.956;7.830;2022-08-01T02:49:55;18.50;99.90
2729;DHT22;1372;47.956;7.830;2022-08-01T02:52:25;18.50;99.90
2729;DHT22;1372;47.956;7.830;2022-08-01T02:54:58;18.40;99.90
2729;DHT22;1372;47.956;7.830;2022-08-01T02:57:49;18.50;99.90
2729;DHT22;1372;47.956;7.830;2022-08-01T03:00:23;18.30;99.90
2729;DHT22;1372;47.956;7.830;2022-08-01T03:02:55;18.30;99.90
2729;DHT22;1372;47.956;7.830;2022-08-01T03:05:45;18.40;99.90
2729;DHT22;1372;47.956;7.830;2022-08-01T03:08:17;18.30;99.90
2729;DHT22;1372;47.956;7.830;2022-08-01T03:10:50;18.40;99.90
2729;DHT22;1372;47.956;7.830;2022-08-01T03:13:21;18.40;99.90
2729;DHT22;1372;47.956;7.830;2022-08-01T03:15:54;18.40;99.90
2729;DHT22;1372;47.956;7.830;2022-08-01T03:18:26;18.30;99.90
2729;DHT22;1372;47.956;7.830;2022-08-01T03:20:56;18.20;99.90
2729;DHT22;1372;47.956;7.830;2022-08-01T03:23:27;18.20;99.90
2729;DHT22;1372;47.956;7.830;2022-08-01T03:26:05;18.30;99.90
2729;DHT22;1372;47.956;7.830;2022-08-01T03:28:35;18.20;99.90
2729;DHT22;1372;47.956;7.830;2022-08-01T03:31:09;18.20;99.90
2729;DHT22;1372;47.956;7.830;2022-08-01T03:33:42;18.20;99.90
2729;DHT22;1372;47.956;7.830;2022-08-01T03:36:12;18.20;99.90
2729;DHT22;1372;47.956;7.830;2022-08-01T03:38:42;18.20;99.90
2729;DHT22;1372;47.956;7.830;2022-08-01T03:41:16;18.10;99.90
2729;DHT22;1372;47.956;7.830;2022-08-01T03:43:54;18.10;99.90
2729;DHT22;1372;47.956;7.830;2022-08-01T03:46:29;18.20;99.90
2729;DHT22;1372;47.956;7.830;2022-08-01T03:49:08;18.20;99.90
2729;DHT22;1372;47.956;7.830;2022-08-01T03:51:41;18.20;99.90
2729;DHT22;1372;47.956;7.830;2022-08-01T03:54:14;18.10;99.90
2729;DHT22;1372;47.956;7.830;2022-08-01T03:56:46;18.10;99.90
2729;DHT22;1372;47.956;7.830;2022-08-01T03:59:16;18.10;99.90
2729;DHT22;1372;47.956;7.830;2022-08-01T04:01:48;18.20;99.90
2729;DHT22;1372;47.956;7.830;2022-08-01T04:04:18;18.10;99.90
2729;DHT22;1372;47.956;7.830;2022-08-01T04:06:47;18.10;99.90
2729;DHT22;1372;47.956;7.830;2022-08-01T04:09:18;18.10;99.90
2729;DHT22;1372;47.956;7.830;2022-08-01T04:11:47;18.10;99.90
2729;DHT22;1372;47.956;7.830;2022-08-01T04:14:16;18.10;99.90
2729;DHT22;1372;47.956;7.830;2022-08-01T04:16:45;18.10;99.90
2729;DHT22;1372;47.956;7.830;2022-08-01T04:19:13;18.00;99.90
2729;DHT22;1372;47.956;7.830;2022-08-01T04:21:43;18.10;99.90
2729;DHT22;1372;47.956;7.830;2022-08-01T04:24:13;18.10;99.90
2729;DHT22;1372;47.956;7.830;2022-08-01T04:26:46;18.20;99.90
2729;DHT22;1372;47.956;7.830;2022-08-01T04:29:17;18.20;99.90
2729;DHT22;1372;47.956;7.830;2022-08-01T04:31:51;18.20;99.90
2729;DHT22;1372;47.956;7.830;2022-08-01T04:34:26;18.20;99.90
2729;DHT22;1372;47.956;7.830;2022-08-01T04:37:14;18.20;99.90
2729;DHT22;1372;47.956;7.830;2022-08-01T04:39:45;18.20;99.90
2729;DHT22;1372;47.956;7.830;2022-08-01T04:42:16;18.20;99.90
2729;DHT22;1372;47.956;7.830;2022-08-01T04:44:51;18.30;99.90
2729;DHT22;1372;47.956;7.830;2022-08-01T04:47:23;18.30;99.90
2729;DHT22;1372;47.956;7.830;2022-08-01T04:49:53;18.20;99.90
2729;DHT22;1372;47.956;7.830;2022-08-01T04:52:32;18.10;99.90
2729;DHT22;1372;47.956;7.830;2022-08-01T04:55:21;18.20;99.90
2729;DHT22;1372;47.956;7.830;2022-08-01T04:58:10;18.10;99.90
2729;DHT22;1372;47.956;7.830;2022-08-01T05:00:46;18.20;99.90
2729;DHT22;1372;47.956;7.830;2022-08-01T05:03:15;18.20;99.90
2729;DHT22;1372;47.956;7.830;2022-08-01T05:05:46;18.20;99.90
2729;DHT22;1372;47.956;7.830;2022-08-01T05:08:16;18.20;99.90
2729;DHT22;1372;47.956;7.830;2022-08-01T05:10:45;18.30;99.90
2729;DHT22;1372;47.956;7.830;2022-08-01T05:13:33;18.30;99.90
2729;DHT22;1372;47.956;7.830;2022-08-01T05:16:22;18.30;99.90
2729;DHT22;1372;47.956;7.830;2022-08-01T05:18:51;18.30;99.90
2729;DHT22;1372;47.956;7.830;2022-08-01T05:21:20;18.40;99.90
2729;DHT22;1372;47.956;7.830;2022-08-01T05:23:50;18.40;99.90
2729;DHT22;1372;47.956;7.830;2022-08-01T05:26:18;18.50;99.90
2729;DHT22;1372;47.956;7.830;2022-08-01T05:28:47;18.50;99.90
2729;DHT22;1372;47.956;7.830;2022-08-01T05:31:16;18.50;99.90
2729;DHT22;1372;47.956;7.830;2022-08-01T05:33:49;18.70;99.90
2729;DHT22;1372;47.956;7.830;2022-08-01T05:36:21;18.80;99.90
2729;DHT22;1372;47.956;7.830;2022-08-01T05:38:51;18.80;99.90
2729;DHT22;1372;47.956;7.830;2022-08-01T05:41:20;18.80;99.90
2729;DHT22;1372;47.956;7.830;2022-08-01T05:43:51;18.90;99.90
2729;DHT22;1372;47.956;7.830;2022-08-01T05:46:20;19.00;99.90
2729;DHT22;1372;47.956;7.830;2022-08-01T05:48:48;19.20;99.90
2729;DHT22;1372;47.956;7.830;2022-08-01T05:51:19;19.30;99.90
2729;DHT22;1372;47.956;7.830;2022-08-01T05:53:51;19.30;99.90
2729;DHT22;1372;47.956;7.830;2022-08-01T05:56:21;19.40;99.90
2729;DHT22;1372;47.956;7.830;2022-08-01T05:58:51;19.50;99.90
2729;DHT22;1372;47.956;7.830;2022-08-01T06:01:20;19.70;99.90
2729;DHT22;1372;47.956;7.830;2022-08-01T06:03:48;19.70;99.90
2729;DHT22;1372;47.956;7.830;2022-08-01T06:06:17;19.80;99.90
2729;DHT22;1372;47.956;7.830;2022-08-01T06:08:46;20.00;99.90
2729;DHT22;1372;47.956;7.830;2022-08-01T06:11:35;20.10;99.90
2729;DHT22;1372;47.956;7.830;2022-08-01T06:14:04;20.20;99.90
2729;DHT22;1372;47.956;7.830;2022-08-01T06:16:33;20.30;99.90
2729;DHT22;1372;47.956;7.830;2022-08-01T06:19:02;20.40;99.90
2729;DHT22;1372;47.956;7.830;2022-08-01T06:21:31;20.50;99.90
2729;DHT22;1372;47.956;7.830;2022-08-01T06:24:19;20.50;99.90
2729;DHT22;1372;47.956;7.830;2022-08-01T06:26:51;20.50;99.90
2729;DHT22;1372;47.956;7.830;2022-08-01T06:29:20;20.60;99.90
2729;DHT22;1372;47.956;7.830;2022-08-01T06:31:51;20.80;99.90
2729;DHT22;1372;47.956;7.830;2022-08-01T06:34:20;20.80;99.90
2729;DHT22;1372;47.956;7.830;2022-08-01T06:36:49;20.90;99.90
2729;DHT22;1372;47.956;7.830;2022-08-01T06:39:18;21.00;99.90
2729;DHT22;1372;47.956;7.830;2022-08-01T06:41:51;21.10;99.90
2729;DHT22;1372;47.956;7.830;2022-08-01T06:44:20;21.20;99.90
2729;DHT22;1372;47.956;7.830;2022-08-01T06:46:48;21.20;99.90
2729;DHT22;1372;47.956;7.830;2022-08-01T06:49:20;21.30;99.90
2729;DHT22;1372;47.956;7.830;2022-08-01T06:51:49;21.30;99.90
2729;DHT22;1372;47.956;7.830;2022-08-01T06:54:18;21.40;99.90
2729;DHT22;1372;47.956;7.830;2022-08-01T06:56:47;21.50;99.90
2729;DHT22;1372;47.956;7.830;2022-08-01T06:59:17;21.60;99.90
2729;DHT22;1372;47.956;7.830;2022-08-01T07:01:45;21.70;99.90
2729;DHT22;1372;47.956;7.830;2022-08-01T07:04:14;21.80;99.90
2729;DHT22;1372;47.956;7.830;2022-08-01T07:06:43;21.80;99.90
2729;DHT22;1372;47.956;7.830;2022-08-01T07:09:14;21.90;99.90
2729;DHT22;1372;47.956;7.830;2022-08-01T07:12:02;21.90;99.90
2729;DHT22;1372;47.956;7.830;2022-08-01T07:14:56;22.00;99.90
2729;DHT22;1372;47.956;7.830;2022-08-01T07:17:24;22.10;99.90
2729;DHT22;1372;47.956;7.830;2022-08-01T07:19:53;22.10;99.90
2729;DHT22;1372;47.956;7.830;2022-08-01T07:22:26;22.10;99.90
2729;DHT22;1372;47.956;7.830;2022-08-01T07:24:57;22.10;99.90
2729;DHT22;1372;47.956;7.830;2022-08-01T07:27:45;22.20;99.90
2729;DHT22;1372;47.956;7.830;2022-08-01T07:30:21;22.30;99.90
2729;DHT22;1372;47.956;7.830;2022-08-01T07:32:50;22.30;99.90
2729;DHT22;1372;47.956;7.830;2022-08-01T07:35:39;22.40;99.90
2729;DHT22;1372;47.956;7.830;2022-08-01T07:38:07;22.40;99.90
2729;DHT22;1372;47.956;7.830;2022-08-01T07:40:39;22.40;99.90
2729;DHT22;1372;47.956;7.830;2022-08-01T07:43:09;22.50;99.90
2729;DHT22;1372;47.956;7.830;2022-08-01T07:45:40;22.50;99.90
2729;DHT22;1372;47.956;7.830;2022-08-01T07:48:12;22.60;99.90
2729;DHT22;1372;47.956;7.830;2022-08-01T07:50:41;22.70;99.90
2729;DHT22;1372;47.956;7.830;2022-08-01T07:53:10;22.70;99.90
2729;DHT22;1372;47.956;7.830;2022-08-01T07:55:44;22.80;99.90
2729;DHT22;1372;47.956;7.830;2022-08-01T07:58:15;22.90;99.90
2729;DHT22;1372;47.956;7.830;2022-08-01T08:00:45;23.00;99.90
2729;DHT22;1372;47.956;7.830;2022-08-01T08:03:15;23.00;99.90
2729;DHT22;1372;47.956;7.830;2022-08-01T08:05:45;23.10;99.90
2729;DHT22;1372;47.956;7.830;2022-08-01T08:08:17;23.20;99.90
2729;DHT22;1372;47.956;7.830;2022-08-01T08:10:46;23.20;99.90
2729;DHT22;1372;47.956;7.830;2022-08-01T08:13:15;23.30;99.90
2729;DHT22;1372;47.956;7.830;2022-08-01T08:15:43;23.40;99.90
2729;DHT22;1372;47.956;7.830;2022-08-01T08:18:14;23.50;99.90
2729;DHT22;1372;47.956;7.830;2022-08-01T08:20:43;23.60;99.90
2729;DHT22;1372;47.956;7.830;2022-08-01T08:23:12;23.60;99.90
2729;DHT22;1372;47.956;7.830;2022-08-01T08:26:27;23.60;99.90
2729;DHT22;1372;47.956;7.830;2022-08-01T08:28:56;23.70;99.90
2729;DHT22;1372;47.956;7.830;2022-08-01T08:31:26;23.80;99.90
2729;DHT22;1372;47.956;7.830;2022-08-01T08:34:15;23.90;99.90
2729;DHT22;1372;47.956;7.830;2022-08-01T08:36:44;24.00;99.90
2729;DHT22;1372;47.956;7.830;2022-08-01T08:39:14;24.00;99.90
2729;DHT22;1372;47.956;7.830;2022-08-01T08:42:06;24.10;99.90
2729;DHT22;1372;47.956;7.830;2022-08-01T08:44:35;24.10;99.90
2729;DHT22;1372;47.956;7.830;2022-08-01T08:47:07;24.20;99.90
2729;DHT22;1372;47.956;7.830;2022-08-01T08:49:45;24.20;99.90
2729;DHT22;1372;47.956;7.830;2022-08-01T08:52:15;24.30;99.90
2729;DHT22;1372;47.956;7.830;2022-08-01T08:54:47;24.40;99.90
2729;DHT22;1372;47.956;7.830;2022-08-01T08:57:19;24.50;99.90
2729;DHT22;1372;47.956;7.830;2022-08-01T08:59:49;24.70;99.90
2729;DHT22;1372;47.956;7.830;2022-08-01T09:02:23;24.80;99.90
2729;DHT22;1372;47.956;7.830;2022-08-01T09:04:58;24.80;99.90
2729;DHT22;1372;47.956;7.830;2022-08-01T09:07:27;24.80;99.90
2729;DHT22;1372;47.956;7.830;2022-08-01T09:10:16;24.90;99.90
2729;DHT22;1372;47.956;7.830;2022-08-01T09:13:06;25.00;99.90
2729;DHT22;1372;47.956;7.830;2022-08-01T09:15:42;25.10;99.90
2729;DHT22;1372;47.956;7.830;2022-08-01T09:18:31;25.20;99.90
2729;DHT22;1372;47.956;7.830;2022-08-01T09:21:13;25.30;99.90
2729;DHT22;1372;47.956;7.830;2022-08-01T09:23:45;25.30;99.90
2729;DHT22;1372;47.956;7.830;2022-08-01T09:26:27;25.40;99.90
2729;DHT22;1372;47.956;7.830;2022-08-01T09:29:03;25.60;99.90
2729;DHT22;1372;47.956;7.830;2022-08-01T09:31:40;25.60;99.90
2729;DHT22;1372;47.956;7.830;2022-08-01T09:34:16;25.70;99.90
2729;DHT22;1372;47.956;7.830;2022-08-01T09:37:12;25.70;99.90
2729;DHT22;1372;47.956;7.830;2022-08-01T09:39:59;25.80;99.90
2729;DHT22;1372;47.956;7.830;2022-08-01T09:42:30;25.80;99.90
2729;DHT22;1372;47.956;7.830;2022-08-01T09:45:33;25.90;99.90
2729;DHT22;1372;47.956;7.830;2022-08-01T09:48:10;26.00;99.90
2729;DHT22;1372;47.956;7.830;2022-08-01T09:50:43;26.10;99.90
2729;DHT22;1372;47.956;7.830;2022-08-01T09:53:13;26.00;99.90
2729;DHT22;1372;47.956;7.830;2022-08-01T09:55:50;26.10;99.90
2729;DHT22;1372;47.956;7.830;2022-08-01T09:58:21;26.20;99.90
2729;DHT22;1372;47.956;7.830;2022-08-01T10:00:58;26.20;99.90
2729;DHT22;1372;47.956;7.830;2022-08-01T10:03:28;26.40;99.90
2729;DHT22;1372;47.956;7.830;2022-08-01T10:06:22;26.40;99.90
2729;DHT22;1372;47.956;7.830;2022-08-01T10:08:53;26.40;99.90
2729;DHT22;1372;47.956;7.830;2022-08-01T10:11:22;26.50;99.90
2729;DHT22;1372;47.956;7.830;2022-08-01T10:14:13;26.60;99.90
2729;DHT22;1372;47.956;7.830;2022-08-01T10:16:48;26.60;99.90
2729;DHT22;1372;47.956;7.830;2022-08-01T10:19:39;26.70;99.90
2729;DHT22;1372;47.956;7.830;2022-08-01T10:22:13;26.70;99.90
2729;DHT22;1372;47.956;7.830;2022-08-01T10:24:45;26.80;99.90
2729;DHT22;1372;47.956;7.830;2022-08-01T10:27:16;26.90;99.90
2729;DHT22;1372;47.956;7.830;2022-08-01T10:29:51;27.00;99.90
2729;DHT22;1372;47.956;7.830;2022-08-01T10:32:26;27.10;99.90
2729;DHT22;1372;47.956;7.830;2022-08-01T10:34:55;27.10;99.90
2729;DHT22;1372;47.956;7.830;2022-08-01T10:37:26;27.20;99.90
2729;DHT22;1372;47.956;7.830;2022-08-01T10:39:56;27.30;99.90
2729;DHT22;1372;47.956;7.830;2022-08-01T10:42:45;27.30;99.90
2729;DHT22;1372;47.956;7.830;2022-08-01T10:45:15;27.30;99.90
2729;DHT22;1372;47.956;7.830;2022-08-01T10:47:47;27.30;99.90
2729;DHT22;1372;47.956;7.830;2022-08-01T10:50:25;27.20;99.90
2729;DHT22;1372;47.956;7.830;2022-08-01T10:53:15;27.20;99.90
2729;DHT22;1372;47.956;7.830;2022-08-01T10:55:52;27.20;99.90
2729;DHT22;1372;47.956;7.830;2022-08-01T10:58:30;27.30;99.90
2729;DHT22;1372;47.956;7.830;2022-08-01T11:01:30;27.50;99.90
2729;DHT22;1372;47.956;7.830;2022-08-01T11:04:06;27.70;99.90
2729;DHT22;1372;47.956;7.830;2022-08-01T11:06:52;27.60;99.90
2729;DHT22;1372;47.956;7.830;2022-08-01T11:09:37;27.70;99.90
2729;DHT22;1372;47.956;7.830;2022-08-01T11:12:11;27.70;99.90
2729;DHT22;1372;47.956;7.830;2022-08-01T11:15:21;27.80;99.90
2729;DHT22;1372;47.956;7.830;2022-08-01T11:17:57;27.90;99.90
2729;DHT22;1372;47.956;7.830;2022-08-01T11:20:30;28.00;99.90
2729;DHT22;1372;47.956;7.830;2022-08-01T11:23:23;28.00;99.90
2729;DHT22;1372;47.956;7.830;2022-08-01T11:26:12;28.10;99.90
2729;DHT22;1372;47.956;7.830;2022-08-01T11:29:11;28.20;99.90
2729;DHT22;1372;47.956;7.830;2022-08-01T11:31:50;28.20;99.90
2729;DHT22;1372;47.956;7.830;2022-08-01T11:34:19;28.10;99.90
2729;DHT22;1372;47.956;7.830;2022-08-01T11:37:22;28.30;99.90
2729;DHT22;1372;47.956;7.830;2022-08-01T11:40:14;28.40;99.90
2729;DHT22;1372;47.956;7.830;2022-08-01T11:42:45;28.30;99.90
2729;DHT22;1372;47.956;7.830;2022-08-01T11:45:14;28.50;99.90
2729;DHT22;1372;47.956;7.830;2022-08-01T11:47:48;28.50;99.90
2729;DHT22;1372;47.956;7.830;2022-08-01T11:50:31;28.60;99.90
2729;DHT22;1372;47.956;7.830;2022-08-01T11:53:20;28.50;99.90
2729;DHT22;1372;47.956;7.830;2022-08-01T11:55:53;28.50;99.90
2729;DHT22;1372;47.956;7.830;2022-08-01T11:58:43;28.70;99.90
2729;DHT22;1372;47.956;7.830;2022-08-01T12:01:12;28.80;99.90
2729;DHT22;1372;47.956;7.830;2022-08-01T12:04:01;28.80;99.90
2729;DHT22;1372;47.956;7.830;2022-08-01T12:06:30;28.50;99.90
2729;DHT22;1372;47.956;7.830;2022-08-01T12:09:18;28.20;99.90
2729;DHT22;1372;47.956;7.830;2022-08-01T12:11:48;28.20;99.90
2729;DHT22;1372;47.956;7.830;2022-08-01T12:14:20;28.40;99.90
2729;DHT22;1372;47.956;7.830;2022-08-01T12:17:08;28.70;99.90
2729;DHT22;1372;47.956;7.830;2022-08-01T12:19:37;28.90;99.90
2729;DHT22;1372;47.956;7.830;2022-08-01T12:22:09;29.10;99.90
2729;DHT22;1372;47.956;7.830;2022-08-01T12:25:05;29.30;99.90
2729;DHT22;1372;47.956;7.830;2022-08-01T12:27:36;29.40;99.90
2729;DHT22;1372;47.956;7.830;2022-08-01T12:30:08;29.50;99.90
2729;DHT22;1372;47.956;7.830;2022-08-01T12:32:40;29.60;99.90
2729;DHT22;1372;47.956;7.830;2022-08-01T12:35:11;29.40;99.90
2729;DHT22;1372;47.956;7.830;2022-08-01T12:38:05;29.60;99.90
2729;DHT22;1372;47.956;7.830;2022-08-01T12:40:40;29.60;99.90
2729;DHT22;1372;47.956;7.830;2022-08-01T12:43:17;29.60;99.90
2729;DHT22;1372;47.956;7.830;2022-08-01T12:46:00;29.60;99.90
2729;DHT22;1372;47.956;7.830;2022-08-01T12:48:30;29.80;99.90
2729;DHT22;1372;47.956;7.830;2022-08-01T12:51:02;29.80;99.90
2729;DHT22;1372;47.956;7.830;2022-08-01T12:53:34;29.80;99.90
2729;DHT22;1372;47.956;7.830;2022-08-01T12:56:08;29.80;99.90
2729;DHT22;1372;47.956;7.830;2022-08-01T12:58:40;29.90;99.90
2729;DHT22;1372;47.956;7.830;2022-08-01T13:01:11;30.10;99.90
2729;DHT22;1372;47.956;7.830;2022-08-01T13:03:40;30.20;99.90
2729;DHT22;1372;47.956;7.830;2022-08-01T13:06:11;29.90;99.90
2729;DHT22;1372;47.956;7.830;2022-08-01T13:08:42;29.90;99.90
2729;DHT22;1372;47.956;7.830;2022-08-01T13:11:31;29.90;99.90
2729;DHT22;1372;47.956;7.830;2022-08-01T13:13:59;29.90;99.90
2729;DHT22;1372;47.956;7.830;2022-08-01T13:16:29;29.70;99.90
2729;DHT22;1372;47.956;7.830;2022-08-01T13:19:20;29.40;99.90
2729;DHT22;1372;47.956;7.830;2022-08-01T13:21:56;29.10;99.90
2729;DHT22;1372;47.956;7.830;2022-08-01T13:24:26;29.00;99.90
2729;DHT22;1372;47.956;7.830;2022-08-01T13:26:59;28.90;99.90
2729;DHT22;1372;47.956;7.830;2022-08-01T13:29:33;28.70;99.90
2729;DHT22;1372;47.956;7.830;2022-08-01T13:32:14;28.60;99.90
2729;DHT22;1372;47.956;7.830;2022-08-01T13:35:01;28.50;99.90
2729;DHT22;1372;47.956;7.830;2022-08-01T13:37:30;28.40;99.90
2729;DHT22;1372;47.956;7.830;2022-08-01T13:39:59;28.30;99.90
2729;DHT22;1372;47.956;7.830;2022-08-01T13:42:28;28.40;99.90
2729;DHT22;1372;47.956;7.830;2022-08-01T13:44:57;28.60;99.90
2729;DHT22;1372;47.956;7.830;2022-08-01T13:47:47;28.70;99.90
2729;DHT22;1372;47.956;7.830;2022-08-01T13:50:29;28.80;99.90
2729;DHT22;1372;47.956;7.830;2022-08-01T13:53:00;29.00;99.90
2729;DHT22;1372;47.956;7.830;2022-08-01T13:55:29;29.30;99.90
2729;DHT22;1372;47.956;7.830;2022-08-01T13:58:01;29.40;99.90
2729;DHT22;1372;47.956;7.830;2022-08-01T14:00:31;29.40;99.90
2729;DHT22;1372;47.956;7.830;2022-08-01T14:03:01;29.60;99.90
2729;DHT22;1372;47.956;7.830;2022-08-01T14:05:30;29.50;99.90
2729;DHT22;1372;47.956;7.830;2022-08-01T14:07:59;29.20;99.90
2729;DHT22;1372;47.956;7.830;2022-08-01T14:10:27;29.00;99.90
2729;DHT22;1372;47.956;7.830;2022-08-01T14:12:57;28.90;99.90
2729;DHT22;1372;47.956;7.830;2022-08-01T14:15:26;28.80;99.90
2729;DHT22;1372;47.956;7.830;2022-08-01T14:18:08;28.70;99.90
2729;DHT22;1372;47.956;7.830;2022-08-01T14:20:38;28.60;99.90
2729;DHT22;1372;47.956;7.830;2022-08-01T14:23:08;28.50;99.90
2729;DHT22;1372;47.956;7.830;2022-08-01T14:25:38;28.40;99.90
2729;DHT22;1372;47.956;7.830;2022-08-01T14:28:45;28.50;99.90
2729;DHT22;1372;47.956;7.830;2022-08-01T14:31:13;28.50;99.90
2729;DHT22;1372;47.956;7.830;2022-08-01T14:33:44;28.50;99.90
2729;DHT22;1372;47.956;7.830;2022-08-01T14:36:15;28.50;99.90
2729;DHT22;1372;47.956;7.830;2022-08-01T14:38:57;28.50;99.90
2729;DHT22;1372;47.956;7.830;2022-08-01T14:41:26;28.50;99.90
2729;DHT22;1372;47.956;7.830;2022-08-01T14:43:57;28.40;99.90
2729;DHT22;1372;47.956;7.830;2022-08-01T14:46:29;28.30;99.90
2729;DHT22;1372;47.956;7.830;2022-08-01T14:49:00;28.20;99.90
2729;DHT22;1372;47.956;7.830;2022-08-01T14:51:29;28.10;99.90
2729;DHT22;1372;47.956;7.830;2022-08-01T14:54:00;28.10;99.90
2729;DHT22;1372;47.956;7.830;2022-08-01T14:56:28;28.00;99.90
2729;DHT22;1372;47.956;7.830;2022-08-01T14:58:57;28.00;99.90
2729;DHT22;1372;47.956;7.830;2022-08-01T15:01:27;28.00;99.90
2729;DHT22;1372;47.956;7.830;2022-08-01T15:03:55;28.00;99.90
2729;DHT22;1372;47.956;7.830;2022-08-01T15:06:25;28.00;99.90
2729;DHT22;1372;47.956;7.830;2022-08-01T15:08:56;28.10;99.90
2729;DHT22;1372;47.956;7.830;2022-08-01T15:11:25;28.10;99.90
2729;DHT22;1372;47.956;7.830;2022-08-01T15:14:00;28.10;99.90
2729;DHT22;1372;47.956;7.830;2022-08-01T15:16:47;28.10;99.90
2729;DHT22;1372;47.956;7.830;2022-08-01T15:19:16;28.40;99.90
2729;DHT22;1372;47.956;7.830;2022-08-01T15:21:47;28.70;99.90
2729;DHT22;1372;47.956;7.830;2022-08-01T15:24:16;28.60;99.90
2729;DHT22;1372;47.956;7.830;2022-08-01T15:26:46;28.50;99.90
2729;DHT22;1372;47.956;7.830;2022-08-01T15:29:14;28.40;99.90
2729;DHT22;1372;47.956;7.830;2022-08-01T15:31:43;28.40;99.90
2729;DHT22;1372;47.956;7.830;2022-08-01T15:34:15;28.30;99.90
2729;DHT22;1372;47.956;7.830;2022-08-01T15:36:48;28.40;99.90
2729;DHT22;1372;47.956;7.830;2022-08-01T15:39:19;28.50;99.90
2729;DHT22;1372;47.956;7.830;2022-08-01T15:41:50;28.70;99.90
2729;DHT22;1372;47.956;7.830;2022-08-01T15:44:19;28.90;99.90
2729;DHT22;1372;47.956;7.830;2022-08-01T15:46:49;28.90;99.90
2729;DHT22;1372;47.956;7.830;2022-08-01T15:49:17;28.90;99.90
2729;DHT22;1372;47.956;7.830;2022-08-01T15:51:51;28.90;99.90
2729;DHT22;1372;47.956;7.830;2022-08-01T15:54:20;28.90;99.90
2729;DHT22;1372;47.956;7.830;2022-08-01T15:56:49;28.80;99.90
2729;DHT22;1372;47.956;7.830;2022-08-01T15:59:17;28.80;99.90
2729;DHT22;1372;47.956;7.830;2022-08-01T16:02:06;28.80;99.90
2729;DHT22;1372;47.956;7.830;2022-08-01T16:04:35;29.00;99.90
2729;DHT22;1372;47.956;7.830;2022-08-01T16:07:25;29.10;99.90
2729;DHT22;1372;47.956;7.830;2022-08-01T16:09:56;29.10;99.90
2729;DHT22;1372;47.956;7.830;2022-08-01T16:12:25;28.90;99.90
2729;DHT22;1372;47.956;7.830;2022-08-01T16:15:00;28.60;99.90
2729;DHT22;1372;47.956;7.830;2022-08-01T16:17:28;28.40;99.90
2729;DHT22;1372;47.956;7.830;2022-08-01T16:19:58;28.20;99.90
2729;DHT22;1372;47.956;7.830;2022-08-01T16:22:28;28.10;99.90
2729;DHT22;1372;47.956;7.830;2022-08-01T16:24:57;28.10;99.90
2729;DHT22;1372;47.956;7.830;2022-08-01T16:27:46;28.10;99.90
2729;DHT22;1372;47.956;7.830;2022-08-01T16:30:15;28.00;99.90
2729;DHT22;1372;47.956;7.830;2022-08-01T16:33:03;28.00;99.90
2729;DHT22;1372;47.956;7.830;2022-08-01T16:35:34;27.90;99.90
2729;DHT22;1372;47.956;7.830;2022-08-01T16:38:05;27.80;99.90
2729;DHT22;1372;47.956;7.830;2022-08-01T16:40:34;27.70;99.90
2729;DHT22;1372;47.956;7.830;2022-08-01T16:43:12;27.70;99.90
2729;DHT22;1372;47.956;7.830;2022-08-01T16:45:44;27.60;99.90
2729;DHT22;1372;47.956;7.830;2022-08-01T16:48:14;27.50;99.90
2729;DHT22;1372;47.956;7.830;2022-08-01T16:50:45;27.50;99.90